createdAt,value
2018-03-17T00:00:25.407Z,0.12
2018-03-17T00:03:14.726Z,0.03
2018-03-17T00:05:42.846Z,0.07
2018-03-17T00:08:10.500Z,0.07
2018-03-17T00:10:38.185Z,0.04
2018-03-17T00:13:05.800Z,-0.04
2018-03-17T00:15:34.346Z,-0.02
2018-03-17T00:18:02.063Z,0.00
2018-03-17T00:20:30.165Z,0.00
2018-03-17T00:22:58.053Z,-0.06
2018-03-17T00:25:26.770Z,-0.15
2018-03-17T00:27:54.422Z,-0.18
2018-03-17T00:30:22.368Z,-0.22
2018-03-17T00:32:50.539Z,-0.26
2018-03-17T00:35:18.270Z,-0.31
2018-03-17T00:37:46.646Z,-0.34
2018-03-17T00:40:14.311Z,-0.36
2018-03-17T00:42:41.891Z,-0.39
2018-03-17T00:45:09.605Z,-0.38
2018-03-17T00:47:37.231Z,-0.38
2018-03-17T00:50:04.854Z,-0.41
2018-03-17T00:52:32.451Z,-0.38
2018-03-17T00:55:00.079Z,-0.40
2018-03-17T00:57:27.733Z,-0.40
2018-03-17T00:59:55.351Z,-0.41
2018-03-17T01:02:23.050Z,-0.40
2018-03-17T01:04:51.362Z,-0.37
2018-03-17T01:07:19.324Z,-0.39
2018-03-17T01:09:47.645Z,-0.38
2018-03-17T01:12:16.143Z,-0.45
2018-03-17T01:14:44.198Z,-0.36
2018-03-17T01:17:12.976Z,-0.36
2018-03-17T01:19:41.171Z,-0.37
2018-03-17T01:22:09.360Z,-0.41
2018-03-17T01:24:36.942Z,-0.43
2018-03-17T01:27:04.678Z,-0.43
2018-03-17T01:29:32.332Z,-0.45
2018-03-17T01:31:59.958Z,-0.46
2018-03-17T01:34:27.827Z,-0.44
2018-03-17T01:36:55.420Z,-0.43
2018-03-17T01:39:23.301Z,-0.52
2018-03-17T01:41:51.206Z,-0.53
2018-03-17T01:44:18.853Z,-0.53
2018-03-17T01:46:46.498Z,-0.49
2018-03-17T01:49:14.109Z,-0.57
2018-03-17T01:51:41.679Z,-0.56
2018-03-17T01:54:21.061Z,-0.55
2018-03-17T01:56:48.686Z,-0.58
2018-03-17T01:59:16.327Z,-0.68
2018-03-17T02:01:43.951Z,-0.63
2018-03-17T02:04:11.634Z,-0.71
2018-03-17T02:06:39.295Z,-0.72
2018-03-17T02:09:06.886Z,-0.74
2018-03-17T02:11:34.575Z,-0.81
2018-03-17T02:14:02.289Z,-0.86
2018-03-17T02:16:29.916Z,-0.82
2018-03-17T02:18:57.849Z,-0.82
2018-03-17T02:21:25.683Z,-0.81
2018-03-17T02:23:53.287Z,-0.86
2018-03-17T02:26:20.871Z,-0.89
2018-03-17T02:28:48.520Z,-0.91
2018-03-17T02:31:16.110Z,-0.91
2018-03-17T02:33:43.741Z,-0.90
2018-03-17T02:36:11.483Z,-0.90
2018-03-17T02:38:39.172Z,-0.93
2018-03-17T02:41:06.934Z,-0.94
2018-03-17T02:43:34.603Z,-0.98
2018-03-17T02:46:02.214Z,-1.02
2018-03-17T02:48:29.941Z,-1.05
2018-03-17T02:50:58.005Z,-1.05
2018-03-17T02:53:25.727Z,-1.06
2018-03-17T02:55:53.736Z,-1.04
2018-03-17T02:58:21.488Z,-1.12
2018-03-17T03:00:49.187Z,-1.10
2018-03-17T03:03:16.873Z,-1.12
2018-03-17T03:05:44.545Z,-1.16
2018-03-17T03:08:12.226Z,-1.11
2018-03-17T03:10:39.808Z,-1.13
2018-03-17T03:13:07.691Z,-1.13
2018-03-17T03:15:35.663Z,-1.13
2018-03-17T03:18:03.284Z,-1.12
2018-03-17T03:20:31.008Z,-1.12
2018-03-17T03:22:58.700Z,-1.15
2018-03-17T03:25:26.304Z,-1.11
2018-03-17T03:27:53.887Z,-1.10
2018-03-17T03:30:21.491Z,-1.11
2018-03-17T03:32:49.123Z,-1.15
2018-03-17T03:35:16.779Z,-1.13
2018-03-17T03:37:44.399Z,-1.15
2018-03-17T03:40:12.069Z,-1.18
2018-03-17T03:42:39.685Z,-1.17
2018-03-17T03:45:07.284Z,-1.10
2018-03-17T03:47:34.859Z,-1.13
2018-03-17T03:50:02.825Z,-1.18
2018-03-17T03:52:30.739Z,-1.16
2018-03-17T03:54:58.348Z,-1.25
2018-03-17T03:57:26.006Z,-1.28
2018-03-17T03:59:53.756Z,-1.34
2018-03-17T04:02:21.346Z,-1.35
2018-03-17T04:04:48.997Z,-1.32
2018-03-17T04:07:16.621Z,-1.30
2018-03-17T04:09:44.201Z,-1.36
2018-03-17T04:12:12.008Z,-1.35
2018-03-17T04:14:39.691Z,-1.35
2018-03-17T04:17:07.384Z,-1.33
2018-03-17T04:19:35.007Z,-1.35
2018-03-17T04:22:02.655Z,-1.33
2018-03-17T04:24:30.276Z,-1.31
2018-03-17T04:26:57.910Z,-1.30
2018-03-17T04:29:25.609Z,-1.39
2018-03-17T04:31:53.151Z,-1.32
2018-03-17T04:34:20.864Z,-1.33
2018-03-17T04:36:48.447Z,-1.40
2018-03-17T04:39:16.082Z,-1.48
2018-03-17T04:41:43.706Z,-1.53
2018-03-17T04:44:11.282Z,-1.51
2018-03-17T04:46:38.886Z,-1.52
2018-03-17T04:49:06.587Z,-1.55
2018-03-17T04:51:34.163Z,-1.54
2018-03-17T04:54:01.846Z,-1.54
2018-03-17T04:56:29.475Z,-1.53
2018-03-17T04:58:57.042Z,-1.61
2018-03-17T05:01:24.934Z,-1.62
2018-03-17T05:03:52.908Z,-1.60
2018-03-17T05:06:20.632Z,-1.59
2018-03-17T05:08:48.205Z,-1.62
2018-03-17T05:11:15.828Z,-1.63
2018-03-17T05:13:43.775Z,-1.67
2018-03-17T05:16:11.469Z,-1.66
2018-03-17T05:18:39.287Z,-1.66
2018-03-17T05:21:06.982Z,-1.65
2018-03-17T05:23:34.922Z,-1.71
2018-03-17T05:26:02.485Z,-1.78
2018-03-17T05:28:30.150Z,-1.73
2018-03-17T05:30:57.769Z,-1.73
2018-03-17T05:33:25.379Z,-1.72
2018-03-17T05:35:52.989Z,-1.72
2018-03-17T05:38:20.606Z,-1.69
2018-03-17T05:40:48.335Z,-1.63
2018-03-17T05:43:15.979Z,-1.66
2018-03-17T05:45:43.819Z,-1.66
2018-03-17T05:48:11.421Z,-1.69
2018-03-17T05:50:39.003Z,-1.65
2018-03-17T05:53:06.644Z,-1.60
2018-03-17T05:55:34.281Z,-1.64
2018-03-17T05:58:01.842Z,-1.65
2018-03-17T06:00:29.851Z,-1.73
2018-03-17T06:02:57.532Z,-1.68
2018-03-17T06:05:25.239Z,-1.70
2018-03-17T06:07:52.818Z,-1.70
2018-03-17T06:10:20.471Z,-1.71
2018-03-17T06:12:50.470Z,-1.69
2018-03-17T06:15:18.119Z,-1.72
2018-03-17T06:17:45.797Z,-1.73
2018-03-17T06:20:13.407Z,-1.73
2018-03-17T06:22:40.982Z,-1.74
2018-03-17T06:25:08.634Z,-1.78
2018-03-17T06:27:36.239Z,-1.83
2018-03-17T06:30:03.825Z,-1.89
2018-03-17T06:32:31.508Z,-1.86
2018-03-17T06:34:59.300Z,-1.83
2018-03-17T06:37:27.251Z,-1.87
2018-03-17T06:39:55.056Z,-1.86
2018-03-17T06:42:22.727Z,-1.88
2018-03-17T06:44:51.169Z,-1.89
2018-03-17T06:47:19.227Z,-1.90
2018-03-17T06:49:46.854Z,-1.89
2018-03-17T06:52:14.751Z,-1.93
2018-03-17T06:54:42.730Z,-1.95
2018-03-17T06:57:10.462Z,-1.92
2018-03-17T06:59:38.137Z,-1.93
2018-03-17T07:02:06.027Z,-1.95
2018-03-17T07:04:33.675Z,-1.89
2018-03-17T07:07:01.778Z,-1.95
2018-03-17T07:09:29.422Z,-1.96
2018-03-17T07:11:57.477Z,-1.96
2018-03-17T07:14:25.105Z,-1.93
2018-03-17T07:16:52.754Z,-1.93
2018-03-17T07:19:20.400Z,-1.92
2018-03-17T07:21:48.454Z,-1.87
2018-03-17T07:24:16.378Z,-2.00
2018-03-17T07:26:45.440Z,-1.91
2018-03-17T07:29:13.085Z,-1.93
2018-03-17T07:31:40.741Z,-1.93
2018-03-17T07:34:08.387Z,-1.94
2018-03-17T07:36:36.101Z,-1.84
2018-03-17T07:39:03.793Z,-1.93
2018-03-17T07:41:31.569Z,-1.87
2018-03-17T07:43:59.290Z,-1.90
2018-03-17T07:46:26.959Z,-1.96
2018-03-17T07:48:54.611Z,-1.84
2018-03-17T07:51:22.539Z,-1.81
2018-03-17T07:53:50.131Z,-1.77
2018-03-17T07:56:17.795Z,-1.72
2018-03-17T07:58:45.635Z,-1.69
2018-03-17T08:01:13.526Z,-1.74
2018-03-17T08:03:41.469Z,-1.79
2018-03-17T08:06:09.071Z,-1.79
2018-03-17T08:08:36.656Z,-1.82
2018-03-17T08:11:04.349Z,-1.77
2018-03-17T08:13:32.425Z,-1.86
2018-03-17T08:16:00.072Z,-1.85
2018-03-17T08:18:28.248Z,-1.89
2018-03-17T08:20:56.617Z,-1.84
2018-03-17T08:23:24.273Z,-1.69
2018-03-17T08:25:51.958Z,-1.63
2018-03-17T08:28:20.010Z,-1.52
2018-03-17T08:33:46.727Z,-1.56
2018-03-17T08:36:14.670Z,-1.56
2018-03-17T08:38:42.272Z,-1.63
2018-03-17T08:41:10.103Z,-1.69
2018-03-17T08:43:37.806Z,-1.58
2018-03-17T08:46:05.515Z,-1.51
2018-03-17T08:48:33.483Z,-1.56
2018-03-17T08:51:01.113Z,-1.51
2018-03-17T08:53:29.149Z,-1.48
2018-03-17T08:55:56.753Z,-1.42
2018-03-17T08:58:24.341Z,-1.47
2018-03-17T09:00:55.902Z,-1.44
2018-03-17T09:03:23.730Z,-1.40
2018-03-17T09:05:51.551Z,-1.40
2018-03-17T09:08:19.258Z,-1.29
2018-03-17T09:10:46.940Z,-1.16
2018-03-17T09:13:14.672Z,-1.08
2018-03-17T09:15:42.425Z,-1.02
2018-03-17T09:18:10.133Z,-1.05
2018-03-17T09:20:37.766Z,-1.13
2018-03-17T09:23:05.429Z,-1.13
2018-03-17T09:25:33.075Z,-1.08
2018-03-17T09:28:00.679Z,-0.99
2018-03-17T09:30:28.278Z,-0.91
2018-03-17T09:32:55.937Z,-0.91
2018-03-17T09:35:23.538Z,-0.97
2018-03-17T09:37:51.189Z,-0.88
2018-03-17T09:40:19.127Z,-0.89
2018-03-17T09:42:46.789Z,-0.86
2018-03-17T09:45:14.389Z,-1.03
2018-03-17T09:47:41.985Z,-1.02
2018-03-17T09:50:09.652Z,-0.97
2018-03-17T09:52:37.315Z,-1.07
2018-03-17T09:55:06.141Z,-1.08
2018-03-17T09:57:33.980Z,-0.98
2018-03-17T10:00:01.645Z,-0.89
2018-03-17T10:02:29.291Z,-0.70
2018-03-17T10:04:56.999Z,-0.53
2018-03-17T10:07:24.928Z,-0.55
2018-03-17T10:09:52.785Z,-0.43
2018-03-17T10:12:20.472Z,-0.41
2018-03-17T10:14:48.110Z,-0.33
2018-03-17T10:17:15.697Z,-0.25
2018-03-17T10:19:43.550Z,-0.31
2018-03-17T10:22:11.203Z,-0.34
2018-03-17T10:24:38.803Z,-0.26
2018-03-17T10:27:07.642Z,-0.25
2018-03-17T10:29:35.656Z,-0.18
2018-03-17T10:32:03.241Z,-0.12
2018-03-17T10:34:31.078Z,-0.18
2018-03-17T10:36:58.758Z,-0.06
2018-03-17T10:39:26.584Z,-0.08
2018-03-17T10:41:54.293Z,-0.17
2018-03-17T10:44:21.961Z,-0.12
2018-03-17T10:46:49.572Z,-0.05
2018-03-17T10:49:17.221Z,-0.02
2018-03-17T10:51:45.096Z,0.03
2018-03-17T10:54:12.733Z,0.09
2018-03-17T10:56:40.405Z,0.08
2018-03-17T10:59:08.188Z,0.23
2018-03-17T11:01:41.340Z,0.21
2018-03-17T11:04:09.047Z,0.19
2018-03-17T11:06:36.650Z,0.27
2018-03-17T11:09:04.346Z,0.38
2018-03-17T11:11:32.273Z,0.34
2018-03-17T11:13:59.948Z,0.28
2018-03-17T11:16:27.626Z,0.58
2018-03-17T11:18:55.529Z,0.83
2018-03-17T11:21:23.333Z,0.95
2018-03-17T11:23:51.266Z,1.18
2018-03-17T11:26:18.862Z,1.15
2018-03-17T11:28:46.821Z,1.23
2018-03-17T11:31:14.436Z,1.39
2018-03-17T11:33:42.011Z,1.32
2018-03-17T11:36:09.634Z,1.18
2018-03-17T11:38:37.248Z,1.07
2018-03-17T11:41:05.236Z,1.27
2018-03-17T11:43:32.868Z,1.05
2018-03-17T11:46:00.694Z,0.85
2018-03-17T11:48:28.324Z,0.75
2018-03-17T11:50:56.030Z,0.74
2018-03-17T11:53:23.597Z,0.65
2018-03-17T11:55:51.192Z,0.75
2018-03-17T11:58:18.853Z,0.78
2018-03-17T12:00:46.466Z,0.98
2018-03-17T12:03:15.393Z,1.12
2018-03-17T12:05:43.090Z,1.22
2018-03-17T12:08:10.768Z,1.32
2018-03-17T12:10:38.705Z,1.46
2018-03-17T12:13:06.436Z,1.70
2018-03-17T12:15:34.108Z,1.74
2018-03-17T12:18:02.028Z,2.02
2018-03-17T12:20:29.981Z,2.27
2018-03-17T12:22:58.620Z,2.50
2018-03-17T12:25:26.480Z,2.67
2018-03-17T12:27:54.112Z,2.47
2018-03-17T12:30:21.722Z,2.34
2018-03-17T12:32:49.664Z,2.21
2018-03-17T12:35:17.305Z,2.15
2018-03-17T12:37:45.148Z,2.52
2018-03-17T12:40:12.772Z,2.73
2018-03-17T12:42:40.368Z,2.95
2018-03-17T12:45:08.168Z,3.06
2018-03-17T12:47:35.807Z,2.98
2018-03-17T12:50:03.443Z,2.91
2018-03-17T12:52:31.088Z,2.62
2018-03-17T12:54:58.772Z,2.47
2018-03-17T12:57:26.740Z,2.28
2018-03-17T12:59:54.450Z,2.48
2018-03-17T13:02:22.009Z,2.70
2018-03-17T13:04:49.631Z,2.57
2018-03-17T13:07:17.300Z,2.52
2018-03-17T13:09:44.900Z,2.34
2018-03-17T13:12:12.783Z,2.24
2018-03-17T13:14:40.637Z,2.19
2018-03-17T13:17:08.319Z,2.12
2018-03-17T13:19:35.934Z,2.12
2018-03-17T13:22:03.733Z,2.04
2018-03-17T13:24:31.592Z,2.34
2018-03-17T13:27:10.978Z,2.40
2018-03-17T13:29:38.640Z,2.22
2018-03-17T13:32:11.963Z,2.05
2018-03-17T13:34:39.585Z,2.12
2018-03-17T13:37:19.302Z,2.20
2018-03-17T13:39:47.204Z,2.45
2018-03-17T13:42:14.878Z,2.72
2018-03-17T13:44:42.743Z,3.05
2018-03-17T13:47:10.768Z,3.14
2018-03-17T13:49:38.427Z,3.14
2018-03-17T13:52:06.024Z,3.23
2018-03-17T13:54:33.634Z,3.47
2018-03-17T13:57:01.240Z,3.57
2018-03-17T13:59:28.976Z,3.58
2018-03-17T14:01:56.563Z,3.72
2018-03-17T14:04:24.298Z,3.83
2018-03-17T14:06:52.027Z,3.75
2018-03-17T14:09:19.753Z,3.82
2018-03-17T14:11:47.580Z,3.76
2018-03-17T14:14:15.410Z,3.48
2018-03-17T14:16:43.161Z,3.55
2018-03-17T14:19:11.030Z,3.70
2018-03-17T14:21:38.643Z,3.41
2018-03-17T14:24:06.285Z,3.52
2018-03-17T14:26:34.094Z,3.42
2018-03-17T14:29:01.970Z,3.52
2018-03-17T14:31:29.612Z,3.61
2018-03-17T14:33:57.307Z,3.47
2018-03-17T14:36:24.879Z,3.47
2018-03-17T14:38:52.643Z,3.51
2018-03-17T14:41:20.330Z,3.57
2018-03-17T14:43:47.932Z,3.61
2018-03-17T14:46:15.570Z,3.39
2018-03-17T14:48:43.172Z,3.47
2018-03-17T14:51:10.778Z,3.48
2018-03-17T14:53:38.373Z,3.55
2018-03-17T14:56:06.064Z,3.45
2018-03-17T14:58:33.654Z,3.48
2018-03-17T15:01:01.216Z,3.37
2018-03-17T15:03:28.817Z,3.28
2018-03-17T15:05:56.396Z,3.18
2018-03-17T15:08:24.488Z,3.04
2018-03-17T15:10:52.301Z,2.92
2018-03-17T15:13:19.922Z,3.09
2018-03-17T15:15:47.627Z,3.18
2018-03-17T15:18:15.193Z,2.98
2018-03-17T15:20:42.913Z,2.97
2018-03-17T15:23:10.512Z,2.61
2018-03-17T15:25:38.128Z,2.66
2018-03-17T15:28:05.784Z,2.53
2018-03-17T15:30:33.529Z,2.34
2018-03-17T15:33:01.213Z,2.33
2018-03-17T15:35:29.086Z,2.22
2018-03-17T15:37:56.660Z,2.18
2018-03-17T15:40:24.247Z,2.14
2018-03-17T15:42:51.877Z,1.93
2018-03-17T15:45:19.648Z,1.92
2018-03-17T15:47:47.536Z,2.02
2018-03-17T15:50:15.162Z,2.09
2018-03-17T15:52:42.812Z,1.90
2018-03-17T15:55:10.479Z,1.68
2018-03-17T15:57:38.142Z,1.69
2018-03-17T16:00:05.796Z,1.69
2018-03-17T16:02:33.443Z,1.51
2018-03-17T16:05:01.059Z,1.51
2018-03-17T16:07:28.730Z,1.46
2018-03-17T16:09:56.313Z,1.37
2018-03-17T16:12:23.889Z,1.36
2018-03-17T16:14:51.579Z,1.19
2018-03-17T16:17:19.153Z,1.18
2018-03-17T16:19:46.961Z,1.11
2018-03-17T16:22:14.570Z,1.16
2018-03-17T16:24:42.131Z,1.09
2018-03-17T16:27:09.775Z,1.15
2018-03-17T16:29:37.740Z,1.15
2018-03-17T16:32:05.306Z,1.06
2018-03-17T16:34:32.884Z,1.02
2018-03-17T16:37:00.499Z,1.07
2018-03-17T16:39:28.230Z,1.06
2018-03-17T16:41:55.811Z,1.04
2018-03-17T16:44:23.716Z,1.04
2018-03-17T16:46:51.367Z,1.07
2018-03-17T16:49:19.003Z,1.03
2018-03-17T16:51:46.664Z,0.97
2018-03-17T16:54:14.247Z,0.86
2018-03-17T16:56:41.917Z,0.87
2018-03-17T16:59:09.524Z,0.84
2018-03-17T17:01:37.197Z,0.80
2018-03-17T17:04:04.774Z,0.75
2018-03-17T17:06:32.402Z,0.72
2018-03-17T17:08:59.981Z,0.75
2018-03-17T17:11:27.561Z,0.76
2018-03-17T17:13:55.231Z,0.59
2018-03-17T17:16:23.030Z,0.55
2018-03-17T17:18:50.626Z,0.56
2018-03-17T17:21:18.538Z,0.56
2018-03-17T17:23:46.617Z,0.56
2018-03-17T17:26:14.383Z,0.43
2018-03-17T17:28:42.120Z,0.44
2018-03-17T17:31:10.156Z,0.44
2018-03-17T17:33:37.851Z,0.40
2018-03-17T17:36:05.544Z,0.39
2018-03-17T17:38:33.076Z,0.35
2018-03-17T17:41:00.673Z,0.34
2018-03-17T17:43:28.300Z,0.32
2018-03-17T17:45:55.956Z,0.29
2018-03-17T17:48:23.544Z,0.27
2018-03-17T17:50:51.669Z,0.25
2018-03-17T17:53:20.415Z,0.21
2018-03-17T17:55:48.311Z,0.21
2018-03-17T17:58:15.999Z,0.18
2018-03-17T18:00:43.649Z,0.14
2018-03-17T18:03:11.229Z,0.14
2018-03-17T18:05:38.937Z,0.19
2018-03-17T18:08:06.548Z,0.17
2018-03-17T18:10:34.130Z,0.11
2018-03-17T18:13:06.253Z,0.10
2018-03-17T18:15:33.866Z,0.05
2018-03-17T18:18:01.533Z,0.09
2018-03-17T18:20:29.153Z,0.05
2018-03-17T18:22:56.971Z,0.06
2018-03-17T18:25:24.796Z,0.03
2018-03-17T18:27:52.728Z,0.05
2018-03-17T18:30:20.483Z,0.01
2018-03-17T18:32:48.081Z,0.02
2018-03-17T18:35:15.807Z,0.01
2018-03-17T18:37:43.770Z,0.01
2018-03-17T18:40:11.413Z,0.00
2018-03-17T18:42:39.022Z,0.03
2018-03-17T18:45:06.668Z,-0.03
2018-03-17T18:47:34.381Z,-0.06
2018-03-17T18:50:02.056Z,-0.02
2018-03-17T18:52:30.044Z,-0.09
2018-03-17T18:54:57.822Z,-0.07
2018-03-17T18:59:51.493Z,-0.13
2018-03-17T19:02:19.568Z,-0.18
2018-03-17T19:04:47.573Z,-0.15
2018-03-17T19:07:15.197Z,-0.13
2018-03-17T19:09:42.985Z,-0.18
2018-03-17T19:12:10.568Z,-0.19
2018-03-17T19:14:39.206Z,-0.24
2018-03-17T19:17:07.202Z,-0.24
2018-03-17T19:19:34.855Z,-0.25
2018-03-17T19:22:02.563Z,-0.24
2018-03-17T19:24:30.223Z,-0.26
2018-03-17T19:26:57.932Z,-0.29
2018-03-17T19:29:25.538Z,-0.26
2018-03-17T19:31:53.122Z,-0.29
2018-03-17T19:34:20.797Z,-0.26
2018-03-17T19:36:48.366Z,-0.34
2018-03-17T19:39:16.396Z,-0.31
2018-03-17T19:41:44.553Z,-0.35
2018-03-17T19:44:12.121Z,-0.38
2018-03-17T19:46:39.777Z,-0.44
2018-03-17T19:49:07.413Z,-0.41
2018-03-17T19:51:35.277Z,-0.43
2018-03-17T19:54:02.867Z,-0.48
2018-03-17T19:56:30.755Z,-0.53
2018-03-17T19:58:58.339Z,-0.49
2018-03-17T20:01:26.035Z,-0.52
2018-03-17T20:03:53.682Z,-0.61
2018-03-17T20:06:21.281Z,-0.52
2018-03-17T20:08:48.936Z,-0.54
2018-03-17T20:11:16.511Z,-0.60
2018-03-17T20:13:44.070Z,-0.64
2018-03-17T20:16:12.009Z,-0.65
2018-03-17T20:18:39.611Z,-0.69
2018-03-17T20:21:07.409Z,-0.72
2018-03-17T20:23:35.181Z,-0.78
2018-03-17T20:26:02.834Z,-0.73
2018-03-17T20:28:30.527Z,-0.78
2018-03-17T20:30:58.172Z,-0.75
2018-03-17T20:33:25.740Z,-0.81
2018-03-17T20:35:53.510Z,-0.77
2018-03-17T20:38:21.139Z,-0.91
2018-03-17T20:40:48.781Z,-0.91
2018-03-17T20:43:16.514Z,-0.94
2018-03-17T20:45:44.253Z,-0.90
2018-03-17T20:48:11.851Z,-0.86
2018-03-17T20:50:39.477Z,-0.89
2018-03-17T20:53:07.171Z,-0.85
2018-03-17T20:55:34.801Z,-0.90
2018-03-17T20:58:02.475Z,-0.91
2018-03-17T21:00:30.144Z,-0.91
2018-03-17T21:03:02.452Z,-0.93
2018-03-17T21:05:30.110Z,-0.99
2018-03-17T21:07:58.072Z,-1.04
2018-03-17T21:10:25.662Z,-1.00
2018-03-17T21:12:53.339Z,-0.99
2018-03-17T21:15:20.924Z,-0.98
2018-03-17T21:17:48.594Z,-1.07
2018-03-17T21:20:16.250Z,-1.03
2018-03-17T21:22:43.871Z,-1.03
2018-03-17T21:25:11.732Z,-1.07
2018-03-17T21:27:39.385Z,-1.07
2018-03-17T21:30:06.998Z,-1.09
2018-03-17T21:32:34.718Z,-1.09
2018-03-17T21:35:02.376Z,-1.07
2018-03-17T21:37:29.982Z,-1.07
2018-03-17T21:39:57.707Z,-1.11
2018-03-17T21:42:25.294Z,-1.17
2018-03-17T21:44:52.874Z,-1.17
2018-03-17T21:47:20.510Z,-1.16
2018-03-17T21:49:48.598Z,-1.14
2018-03-17T21:52:16.208Z,-1.13
2018-03-17T21:54:43.856Z,-1.11
2018-03-17T21:57:11.445Z,-1.14
2018-03-17T21:59:39.059Z,-1.20
2018-03-17T22:02:06.754Z,-1.23
2018-03-17T22:04:34.393Z,-1.24
2018-03-17T22:07:01.981Z,-1.25
2018-03-17T22:09:29.622Z,-1.34
2018-03-17T22:11:57.401Z,-1.34
2018-03-17T22:14:25.194Z,-1.35
2018-03-17T22:16:52.821Z,-1.34
2018-03-17T22:19:20.473Z,-1.34
2018-03-17T22:21:48.103Z,-1.36
2018-03-17T22:24:15.966Z,-1.33
2018-03-17T22:26:43.607Z,-1.34
2018-03-17T22:29:11.299Z,-1.36
2018-03-17T22:31:38.892Z,-1.37
2018-03-17T22:34:06.522Z,-1.45
2018-03-17T22:36:34.152Z,-1.42
2018-03-17T22:39:01.771Z,-1.37
2018-03-17T22:41:30.053Z,-1.41
2018-03-17T22:43:57.672Z,-1.45
2018-03-17T22:46:25.244Z,-1.48
2018-03-17T22:48:53.315Z,-1.47
2018-03-17T22:51:20.894Z,-1.56
2018-03-17T22:53:48.523Z,-1.51
2018-03-17T22:56:16.131Z,-1.54
2018-03-17T22:58:43.762Z,-1.52
2018-03-17T23:01:11.350Z,-1.57
2018-03-17T23:03:38.944Z,-1.58
2018-03-17T23:06:06.587Z,-1.58
2018-03-17T23:08:34.186Z,-1.58
2018-03-17T23:11:01.793Z,-1.61
2018-03-17T23:13:29.681Z,-1.56
2018-03-17T23:15:57.710Z,-1.60
2018-03-17T23:18:25.378Z,-1.62
2018-03-17T23:20:53.127Z,-1.60
2018-03-17T23:23:21.017Z,-1.60
2018-03-17T23:25:49.063Z,-1.69
2018-03-17T23:28:17.342Z,-1.60
2018-03-17T23:30:44.991Z,-1.66
2018-03-17T23:33:12.593Z,-1.71
2018-03-17T23:35:40.217Z,-1.72
2018-03-17T23:38:07.919Z,-1.68
2018-03-17T23:40:35.538Z,-1.72
2018-03-17T23:43:03.700Z,-1.66
2018-03-17T23:45:31.330Z,-1.71
2018-03-17T23:47:59.083Z,-1.73
2018-03-17T23:50:26.739Z,-1.74
2018-03-17T23:52:54.376Z,-1.72
2018-03-17T23:55:22.125Z,-1.71
2018-03-17T23:57:49.740Z,-1.76
